Dulles, Virginia
Current Conditions -  °F | °C
As of 7:52 AM on Friday 24 Oct 2014 (Local Time) from KIAD Reporting Station
Scattered Clouds Scattered Clouds  
Wind Chill: 51°   Ceiling: Unl
Heat Index: 51°   Visibility: 10mi
Dew Point: 42°   Wind: 14mph
Humidity: 71%   Direction: 310°NW
Pressure: 29.99"   Gusts: NA
Location:  38.94°N, 77.46°W
Report Text: KIAD 241152Z 31012KT 10SM SCT200 11/06 A2999 RMK AO2 SLP153 T01060056 10128 20100 51010
Loading
Personal Weather Stations






























Interactive Weather Map
Tropical Storm Tracking
New forecast layout! Learn more

10-Day Weather Forecast

Advertisements
Track Severe Weather on mobile